Time;durP1;ratioP1;P1;durP2;ratioP2;P2;SDS_P1;SDS_P2;PMS_P1;PMS_P2;Temp;Humidity;BMP_temperature;BMP_pressure;BME280_temperature;BME280_humidity;BME280_pressure;Samples;Min_cycle;Max_cycle;Signal;HPM_P1;HPM_P2
2022/10/14 00:00:35;;;;;;;;;;;11.40;99.90;;;;;;5053218;28;19928;-66
2022/10/14 00:03:00;;;;;;;;;;;11.50;99.90;;;;;;5072555;28;20007;-66
2022/10/14 00:05:26;;;;;;;;;;;11.40;99.90;;;;;;5054742;28;19935;-66
2022/10/14 00:07:52;;;;;;;;;;;11.40;99.90;;;;;;5054002;28;20015;-67
2022/10/14 00:10:17;;;;;;;;;;;11.50;99.90;;;;;;5049617;28;20010;-66
2022/10/14 00:12:44;;;;;;;;;;;11.50;99.90;;;;;;5052269;28;19928;-66
2022/10/14 00:15:09;;;;;;;;;;;11.50;99.90;;;;;;5053333;28;19920;-66
2022/10/14 00:17:35;;;;;;;;;;;11.50;99.90;;;;;;5053422;28;19955;-66
2022/10/14 00:20:00;;;;;;;;;;;11.50;99.90;;;;;;5071521;28;20035;-66
2022/10/14 00:22:26;;;;;;;;;;;11.50;99.90;;;;;;5053194;28;19931;-66
2022/10/14 00:24:51;;;;;;;;;;;11.60;99.90;;;;;;5052103;28;20007;-66
2022/10/14 00:27:17;;;;;;;;;;;11.60;99.90;;;;;;5052953;28;19928;-66
2022/10/14 00:29:42;;;;;;;;;;;11.60;99.90;;;;;;5053314;28;19999;-66
2022/10/14 00:32:08;;;;;;;;;;;11.50;99.90;;;;;;5050282;28;19920;-66
2022/10/14 00:34:34;;;;;;;;;;;11.50;99.90;;;;;;5048358;28;20068;-66
2022/10/14 00:36:59;;;;;;;;;;;11.50;99.90;;;;;;5053053;28;20003;-66
2022/10/14 00:39:25;;;;;;;;;;;11.50;99.90;;;;;;5053150;28;20046;-66
2022/10/14 00:41:50;;;;;;;;;;;11.50;99.90;;;;;;5036550;28;19932;-66
2022/10/14 00:44:16;;;;;;;;;;;11.40;99.90;;;;;;5052322;28;19924;-66
2022/10/14 00:46:42;;;;;;;;;;;11.50;99.90;;;;;;5069678;28;19928;-66
2022/10/14 00:49:10;;;;;;;;;;;11.50;99.90;;;;;;5033781;28;19925;-66
2022/10/14 00:51:37;;;;;;;;;;;11.40;99.90;;;;;;5068834;28;19928;-66
2022/10/14 00:54:03;;;;;;;;;;;11.40;99.90;;;;;;5053617;28;19924;-66
2022/10/14 00:56:29;;;;;;;;;;;11.40;99.90;;;;;;5070891;28;20466;-66
2022/10/14 00:58:55;;;;;;;;;;;11.40;99.90;;;;;;5069884;28;19966;-66
2022/10/14 01:01:20;;;;;;;;;;;11.40;99.90;;;;;;5052881;28;19920;-66
2022/10/14 01:03:46;;;;;;;;;;;11.40;99.90;;;;;;5071302;28;20303;-66
2022/10/14 01:06:35;;;;;;;;;;;11.40;99.90;;;;;;5051703;28;19924;-66
2022/10/14 01:09:24;;;;;;;;;;;11.40;99.90;;;;;;5049572;28;19924;-66
2022/10/14 01:11:50;;;;;;;;;;;11.40;99.90;;;;;;5066817;28;19990;-66
2022/10/14 01:14:37;;;;;;;;;;;11.30;99.90;;;;;;5052298;28;19928;-66
2022/10/14 01:17:07;;;;;;;;;;;11.30;99.90;;;;;;5052570;28;19999;-66
2022/10/14 01:19:44;;;;;;;;;;;11.30;99.90;;;;;;5070723;28;19967;-66
2022/10/14 01:22:16;;;;;;;;;;;11.30;99.90;;;;;;5051784;28;19925;-66
2022/10/14 01:24:46;;;;;;;;;;;11.30;99.90;;;;;;5053392;28;20301;-66
2022/10/14 01:27:12;;;;;;;;;;;11.30;99.90;;;;;;5069674;28;19921;-66
2022/10/14 01:29:43;;;;;;;;;;;11.20;99.90;;;;;;5052004;28;19970;-66
2022/10/14 01:32:11;;;;;;;;;;;11.20;99.90;;;;;;5048895;28;19920;-66
2022/10/14 01:34:40;;;;;;;;;;;11.20;99.90;;;;;;5052267;28;19925;-67
2022/10/14 01:37:11;;;;;;;;;;;11.30;99.90;;;;;;5048831;28;20397;-66
2022/10/14 01:39:40;;;;;;;;;;;11.20;99.90;;;;;;5048147;28;19925;-67
2022/10/14 01:42:17;;;;;;;;;;;11.20;99.90;;;;;;5069955;28;19929;-66
2022/10/14 01:44:46;;;;;;;;;;;11.10;99.90;;;;;;5052089;28;19928;-66
2022/10/14 01:47:14;;;;;;;;;;;11.10;99.90;;;;;;5051453;28;20369;-66
2022/10/14 01:49:45;;;;;;;;;;;11.10;99.90;;;;;;5052435;28;20456;-66
2022/10/14 01:52:14;;;;;;;;;;;11.10;99.90;;;;;;5052227;28;20383;-66
2022/10/14 01:54:41;;;;;;;;;;;11.10;99.90;;;;;;5034734;28;19940;-67
2022/10/14 01:57:10;;;;;;;;;;;11.10;99.90;;;;;;5069466;28;19920;-66
2022/10/14 01:59:37;;;;;;;;;;;11.10;99.90;;;;;;5051803;28;19967;-67
2022/10/14 02:02:02;;;;;;;;;;;11.10;99.90;;;;;;5070007;28;19931;-66
2022/10/14 02:04:28;;;;;;;;;;;11.10;99.90;;;;;;5067756;28;19920;-66
2022/10/14 02:06:59;;;;;;;;;;;11.10;99.90;;;;;;5051735;28;19920;-67
2022/10/14 02:09:40;;;;;;;;;;;11.00;99.90;;;;;;5050424;28;19964;-66
2022/10/14 02:12:20;;;;;;;;;;;11.00;99.90;;;;;;5048675;28;19924;-66
2022/10/14 02:14:52;;;;;;;;;;;11.00;99.90;;;;;;5066543;28;19924;-66
2022/10/14 02:17:26;;;;;;;;;;;11.10;99.90;;;;;;5050212;28;20350;-66
2022/10/14 02:20:00;;;;;;;;;;;11.00;99.90;;;;;;5044178;28;19921;-66
2022/10/14 02:22:30;;;;;;;;;;;11.00;99.90;;;;;;5051496;28;20420;-66
2022/10/14 02:24:58;;;;;;;;;;;11.00;99.90;;;;;;5053024;28;19932;-66
2022/10/14 02:27:25;;;;;;;;;;;11.00;99.90;;;;;;5051181;28;20021;-66
2022/10/14 02:29:51;;;;;;;;;;;11.00;99.90;;;;;;5037140;28;19921;-66
2022/10/14 02:32:17;;;;;;;;;;;11.00;99.90;;;;;;5072286;28;19924;-66
2022/10/14 02:34:45;;;;;;;;;;;11.00;99.90;;;;;;5072561;28;19967;-66
2022/10/14 02:37:11;;;;;;;;;;;11.00;99.90;;;;;;5052680;28;19975;-67
2022/10/14 02:39:40;;;;;;;;;;;11.00;99.90;;;;;;5053442;28;20014;-67
2022/10/14 02:42:06;;;;;;;;;;;11.00;99.90;;;;;;5032859;28;19929;-66
2022/10/14 02:44:32;;;;;;;;;;;11.00;99.90;;;;;;5054073;28;19920;-66
2022/10/14 02:46:57;;;;;;;;;;;11.00;99.90;;;;;;5050339;28;20398;-66
2022/10/14 02:49:23;;;;;;;;;;;11.00;99.90;;;;;;5054312;28;19958;-66
2022/10/14 02:51:48;;;;;;;;;;;11.00;99.90;;;;;;5053388;28;19920;-67
2022/10/14 02:54:14;;;;;;;;;;;11.00;99.90;;;;;;5053924;28;19926;-66
2022/10/14 02:56:39;;;;;;;;;;;10.90;99.90;;;;;;5052845;28;19951;-66
2022/10/14 02:59:05;;;;;;;;;;;10.90;99.90;;;;;;5054483;28;19967;-66
2022/10/14 03:01:31;;;;;;;;;;;10.90;99.90;;;;;;5053696;28;20389;-67
2022/10/14 03:03:56;;;;;;;;;;;10.90;99.90;;;;;;5055647;28;19927;-67
2022/10/14 03:06:22;;;;;;;;;;;10.90;99.90;;;;;;5070580;28;19948;-67
2022/10/14 03:08:47;;;;;;;;;;;10.90;99.90;;;;;;5037112;28;19928;-66
2022/10/14 03:11:13;;;;;;;;;;;10.90;99.90;;;;;;5053197;28;19936;-67
2022/10/14 03:13:38;;;;;;;;;;;10.90;99.90;;;;;;5052164;28;20618;-66
2022/10/14 03:16:04;;;;;;;;;;;10.90;99.90;;;;;;5052915;28;19929;-66
2022/10/14 03:18:30;;;;;;;;;;;11.00;99.90;;;;;;5053008;28;19924;-66
2022/10/14 03:20:55;;;;;;;;;;;10.90;99.90;;;;;;5071636;28;20597;-67
2022/10/14 03:23:21;;;;;;;;;;;11.00;99.90;;;;;;5070632;28;19927;-66
2022/10/14 03:25:46;;;;;;;;;;;10.90;99.90;;;;;;5050718;28;20313;-67
2022/10/14 03:28:12;;;;;;;;;;;10.90;99.90;;;;;;5052423;28;19924;-66
2022/10/14 03:30:37;;;;;;;;;;;10.90;99.90;;;;;;5054592;28;19969;-67
2022/10/14 03:33:03;;;;;;;;;;;10.90;99.90;;;;;;5053911;28;20401;-67
2022/10/14 03:35:29;;;;;;;;;;;10.90;99.90;;;;;;5051917;28;20007;-66
2022/10/14 03:37:54;;;;;;;;;;;10.90;99.90;;;;;;5054875;28;20358;-67
2022/10/14 03:40:20;;;;;;;;;;;10.90;99.90;;;;;;5069423;28;19927;-67
2022/10/14 03:42:46;;;;;;;;;;;10.90;99.90;;;;;;5053427;28;19928;-66
2022/10/14 03:45:12;;;;;;;;;;;10.90;99.90;;;;;;5071663;28;19931;-66
2022/10/14 03:47:37;;;;;;;;;;;10.80;99.90;;;;;;5071343;28;20009;-66
2022/10/14 03:50:03;;;;;;;;;;;10.80;99.90;;;;;;5072008;28;20305;-66
2022/10/14 03:52:30;;;;;;;;;;;10.90;99.90;;;;;;5053957;28;20278;-67
2022/10/14 03:54:55;;;;;;;;;;;10.80;99.90;;;;;;5054222;28;19920;-67
2022/10/14 03:57:20;;;;;;;;;;;10.90;99.90;;;;;;5071905;28;20290;-66
2022/10/14 03:59:46;;;;;;;;;;;10.80;99.90;;;;;;5050525;28;20365;-66
2022/10/14 04:02:11;;;;;;;;;;;10.80;99.90;;;;;;5052942;28;19920;-67
2022/10/14 04:04:37;;;;;;;;;;;10.80;99.90;;;;;;5053241;28;19921;-66
2022/10/14 04:07:02;;;;;;;;;;;10.80;99.90;;;;;;5052175;28;19970;-67
2022/10/14 04:09:28;;;;;;;;;;;10.70;99.90;;;;;;5068732;28;19939;-66
2022/10/14 04:11:55;;;;;;;;;;;10.80;99.90;;;;;;5050701;28;19928;-66
2022/10/14 04:14:22;;;;;;;;;;;10.70;99.90;;;;;;5049221;28;19932;-67
2022/10/14 04:16:47;;;;;;;;;;;10.70;99.90;;;;;;5045660;28;20378;-67
2022/10/14 04:19:12;;;;;;;;;;;10.70;99.90;;;;;;5051195;28;19920;-67
2022/10/14 04:21:38;;;;;;;;;;;10.70;99.90;;;;;;5050560;28;20339;-67
2022/10/14 04:24:03;;;;;;;;;;;10.70;99.90;;;;;;5052490;28;20668;-67
2022/10/14 04:26:29;;;;;;;;;;;10.70;99.90;;;;;;5051115;28;20014;-67
2022/10/14 04:28:54;;;;;;;;;;;10.70;99.90;;;;;;5071422;28;19971;-67
2022/10/14 04:31:21;;;;;;;;;;;10.70;99.90;;;;;;5067560;28;19924;-66
2022/10/14 04:33:47;;;;;;;;;;;10.70;99.90;;;;;;5052851;28;19927;-67
2022/10/14 04:36:12;;;;;;;;;;;10.70;99.90;;;;;;5036751;28;19925;-67
2022/10/14 04:38:38;;;;;;;;;;;10.70;99.90;;;;;;5034651;28;19947;-67
2022/10/14 04:41:03;;;;;;;;;;;10.70;99.90;;;;;;5070795;28;19920;-66
2022/10/14 04:43:29;;;;;;;;;;;10.70;99.90;;;;;;5070826;28;19921;-66
2022/10/14 04:45:54;;;;;;;;;;;10.80;99.90;;;;;;5062877;28;20430;-66
2022/10/14 04:48:20;;;;;;;;;;;10.80;99.90;;;;;;5051000;28;19928;-67
2022/10/14 04:50:48;;;;;;;;;;;10.80;99.90;;;;;;5052838;28;20509;-66
2022/10/14 04:53:13;;;;;;;;;;;10.80;99.90;;;;;;5048592;28;19921;-66
2022/10/14 04:55:39;;;;;;;;;;;10.80;99.90;;;;;;5069129;28;19992;-67
2022/10/14 04:58:04;;;;;;;;;;;10.80;99.90;;;;;;5050768;28;19928;-67
2022/10/14 05:00:30;;;;;;;;;;;10.80;99.90;;;;;;5052420;28;19932;-67
2022/10/14 05:02:55;;;;;;;;;;;10.80;99.90;;;;;;5053425;28;19936;-67
2022/10/14 05:05:21;;;;;;;;;;;10.80;99.90;;;;;;5051208;28;19929;-67
2022/10/14 05:07:46;;;;;;;;;;;10.80;99.90;;;;;;5051932;28;19924;-66
2022/10/14 05:10:12;;;;;;;;;;;10.80;99.90;;;;;;5070121;28;20057;-67
2022/10/14 05:12:38;;;;;;;;;;;10.80;99.90;;;;;;5050157;28;19927;-67
2022/10/14 05:15:04;;;;;;;;;;;10.80;99.90;;;;;;5050803;28;19928;-67
2022/10/14 05:17:29;;;;;;;;;;;10.80;99.90;;;;;;5034068;28;19932;-67
2022/10/14 05:19:55;;;;;;;;;;;10.80;99.90;;;;;;5066879;28;20200;-67
2022/10/14 05:22:20;;;;;;;;;;;10.80;99.90;;;;;;5052183;28;19921;-67
2022/10/14 05:24:46;;;;;;;;;;;10.80;99.90;;;;;;5052031;28;20312;-67
2022/10/14 05:27:11;;;;;;;;;;;10.80;99.90;;;;;;5051851;28;19956;-68
2022/10/14 05:29:37;;;;;;;;;;;10.80;99.90;;;;;;5051409;28;19921;-67
2022/10/14 05:32:02;;;;;;;;;;;10.80;99.90;;;;;;5052157;28;19928;-67
2022/10/14 05:34:28;;;;;;;;;;;10.80;99.90;;;;;;5071007;28;19924;-67
2022/10/14 05:36:54;;;;;;;;;;;10.80;99.90;;;;;;5050360;28;19924;-67
2022/10/14 05:39:19;;;;;;;;;;;10.70;99.90;;;;;;5052333;28;19924;-68
2022/10/14 05:41:45;;;;;;;;;;;10.70;99.90;;;;;;5069964;28;20127;-67
2022/10/14 05:44:11;;;;;;;;;;;10.70;99.90;;;;;;5052863;28;19964;-67
2022/10/14 05:46:36;;;;;;;;;;;10.70;99.90;;;;;;5051470;28;19951;-67
2022/10/14 05:49:04;;;;;;;;;;;10.70;99.90;;;;;;5050825;28;19929;-67
2022/10/14 05:51:31;;;;;;;;;;;10.70;99.90;;;;;;5049100;28;20019;-67
2022/10/14 05:53:57;;;;;;;;;;;10.70;99.90;;;;;;5049702;28;19927;-67
2022/10/14 05:56:22;;;;;;;;;;;10.70;99.90;;;;;;5052240;28;19921;-67
2022/10/14 05:58:47;;;;;;;;;;;10.70;99.90;;;;;;5054390;28;21561;-67
2022/10/14 06:01:13;;;;;;;;;;;10.70;99.90;;;;;;5053291;28;19955;-67
2022/10/14 06:03:39;;;;;;;;;;;10.80;99.90;;;;;;5056239;28;19928;-67
2022/10/14 06:06:04;;;;;;;;;;;10.80;99.90;;;;;;5039365;28;19924;-67
2022/10/14 06:08:30;;;;;;;;;;;10.80;99.90;;;;;;5068402;28;20507;-67
2022/10/14 06:10:55;;;;;;;;;;;10.80;99.90;;;;;;5070272;28;19928;-67
2022/10/14 06:13:21;;;;;;;;;;;10.80;99.90;;;;;;5054397;28;20514;-67
2022/10/14 06:15:46;;;;;;;;;;;10.80;99.90;;;;;;5074079;28;19932;-68
2022/10/14 06:18:12;;;;;;;;;;;10.80;99.90;;;;;;5053528;28;19932;-67
2022/10/14 06:20:37;;;;;;;;;;;10.80;99.90;;;;;;5054198;28;20023;-67
2022/10/14 06:23:03;;;;;;;;;;;10.90;99.90;;;;;;5056435;28;19978;-68
2022/10/14 06:25:29;;;;;;;;;;;10.90;99.90;;;;;;5054262;28;19924;-67
2022/10/14 06:27:54;;;;;;;;;;;10.90;99.90;;;;;;5054927;28;19928;-67
2022/10/14 06:30:19;;;;;;;;;;;10.90;99.90;;;;;;5055082;28;19956;-67
2022/10/14 06:32:45;;;;;;;;;;;10.90;99.90;;;;;;5034066;28;19924;-67
2022/10/14 06:35:11;;;;;;;;;;;10.90;99.90;;;;;;5074073;28;19960;-67
2022/10/14 06:37:36;;;;;;;;;;;10.90;99.90;;;;;;5073255;28;19920;-67
2022/10/14 06:40:02;;;;;;;;;;;11.00;99.90;;;;;;5055027;28;19927;-67
2022/10/14 06:42:27;;;;;;;;;;;11.00;99.90;;;;;;5053609;28;20038;-67
2022/10/14 06:44:53;;;;;;;;;;;11.00;99.90;;;;;;5048055;28;20417;-67
2022/10/14 06:47:18;;;;;;;;;;;11.00;99.90;;;;;;5052756;28;19920;-67
2022/10/14 06:49:44;;;;;;;;;;;11.10;99.90;;;;;;5053086;28;19960;-67
2022/10/14 06:52:10;;;;;;;;;;;11.10;99.90;;;;;;5072005;28;19928;-67
2022/10/14 06:54:35;;;;;;;;;;;11.10;99.90;;;;;;5055856;28;19930;-67
2022/10/14 06:57:00;;;;;;;;;;;11.20;99.90;;;;;;5073062;28;19928;-67
2022/10/14 06:59:27;;;;;;;;;;;11.20;99.90;;;;;;5055295;28;20380;-67
2022/10/14 07:01:54;;;;;;;;;;;11.20;99.90;;;;;;5053034;28;20058;-67
2022/10/14 07:04:19;;;;;;;;;;;11.20;99.90;;;;;;5063116;28;20286;-66
2022/10/14 07:06:45;;;;;;;;;;;11.30;99.90;;;;;;5049662;28;19928;-66
2022/10/14 07:09:10;;;;;;;;;;;11.30;99.90;;;;;;5045890;28;19966;-67
2022/10/14 07:11:35;;;;;;;;;;;11.30;99.90;;;;;;5054700;28;20011;-67
2022/10/14 07:14:01;;;;;;;;;;;11.40;99.90;;;;;;5051202;28;19920;-67
2022/10/14 07:16:27;;;;;;;;;;;11.40;99.90;;;;;;5072515;28;19974;-67
2022/10/14 07:18:53;;;;;;;;;;;11.50;99.90;;;;;;5052934;28;19928;-67
2022/10/14 07:21:18;;;;;;;;;;;11.50;99.90;;;;;;5055002;28;19921;-67
2022/10/14 07:23:44;;;;;;;;;;;11.50;99.90;;;;;;5052894;28;19932;-67
2022/10/14 07:26:09;;;;;;;;;;;11.60;99.90;;;;;;5052087;28;19970;-67
2022/10/14 07:28:35;;;;;;;;;;;11.70;99.90;;;;;;5053343;28;19968;-67
2022/10/14 07:31:01;;;;;;;;;;;11.70;99.90;;;;;;5053376;28;19991;-67
2022/10/14 07:33:27;;;;;;;;;;;11.70;99.90;;;;;;5067481;28;19971;-67
2022/10/14 07:35:52;;;;;;;;;;;11.80;99.90;;;;;;5049592;28;20392;-67
2022/10/14 07:38:18;;;;;;;;;;;11.80;99.90;;;;;;5053232;28;19924;-66
2022/10/14 07:40:43;;;;;;;;;;;11.80;99.90;;;;;;5052656;28;19929;-67
2022/10/14 07:43:09;;;;;;;;;;;11.80;99.90;;;;;;5032225;28;19971;-67
2022/10/14 07:45:38;;;;;;;;;;;11.80;99.90;;;;;;5053959;28;20011;-67
2022/10/14 07:48:04;;;;;;;;;;;11.90;99.90;;;;;;5054824;28;19974;-67
2022/10/14 07:50:29;;;;;;;;;;;11.80;99.90;;;;;;5033938;28;19920;-67
2022/10/14 07:52:55;;;;;;;;;;;11.90;99.90;;;;;;5071569;28;19933;-67
2022/10/14 07:55:20;;;;;;;;;;;11.80;99.90;;;;;;5048989;28;19924;-67
2022/10/14 07:57:46;;;;;;;;;;;11.80;99.90;;;;;;5068938;28;20011;-67
2022/10/14 08:00:11;;;;;;;;;;;11.80;99.90;;;;;;5050883;28;19960;-67
2022/10/14 08:02:37;;;;;;;;;;;11.80;99.90;;;;;;5053318;28;19920;-66
2022/10/14 08:05:02;;;;;;;;;;;11.90;99.90;;;;;;5050433;28;19943;-67
2022/10/14 08:07:28;;;;;;;;;;;11.90;99.90;;;;;;5047179;28;19966;-67
2022/10/14 08:09:53;;;;;;;;;;;11.90;99.90;;;;;;5046964;28;20359;-67
2022/10/14 08:12:19;;;;;;;;;;;12.00;99.90;;;;;;5062214;28;19924;-67
2022/10/14 08:14:44;;;;;;;;;;;12.00;99.90;;;;;;5071231;28;19925;-67
2022/10/14 08:17:10;;;;;;;;;;;12.10;99.90;;;;;;5067865;28;19924;-66
2022/10/14 08:19:35;;;;;;;;;;;12.10;99.90;;;;;;5065576;28;19974;-67
2022/10/14 08:22:01;;;;;;;;;;;12.20;99.90;;;;;;5069825;28;19928;-67
2022/10/14 08:24:27;;;;;;;;;;;12.30;99.90;;;;;;5035887;28;19939;-67
2022/10/14 08:26:53;;;;;;;;;;;12.30;99.90;;;;;;5069229;28;19921;-66
2022/10/14 08:29:21;;;;;;;;;;;12.30;99.90;;;;;;5053506;28;19948;-67
2022/10/14 08:31:47;;;;;;;;;;;12.40;99.90;;;;;;5032830;28;20043;-67
2022/10/14 08:34:13;;;;;;;;;;;12.30;99.90;;;;;;5053976;28;20338;-68
2022/10/14 08:36:38;;;;;;;;;;;12.30;99.90;;;;;;5051761;28;19927;-67
2022/10/14 08:39:04;;;;;;;;;;;12.40;99.90;;;;;;5071716;28;20050;-67
2022/10/14 08:41:39;;;;;;;;;;;12.50;99.90;;;;;;5067764;28;19929;-68
2022/10/14 08:44:09;;;;;;;;;;;12.40;99.90;;;;;;5050166;28;20282;-67
2022/10/14 08:46:34;;;;;;;;;;;12.50;99.90;;;;;;5068092;28;19966;-68
2022/10/14 08:49:03;;;;;;;;;;;12.50;99.90;;;;;;5071005;28;19928;-67
2022/10/14 08:51:29;;;;;;;;;;;12.50;99.90;;;;;;5036901;28;19971;-67
2022/10/14 08:53:58;;;;;;;;;;;12.50;99.90;;;;;;5053501;28;19971;-69
2022/10/14 08:56:24;;;;;;;;;;;12.50;99.90;;;;;;5053734;28;19929;-69
2022/10/14 08:58:50;;;;;;;;;;;12.50;99.90;;;;;;5036599;28;19920;-68
2022/10/14 09:01:27;;;;;;;;;;;12.60;99.90;;;;;;5051961;28;19932;-69
2022/10/14 09:03:56;;;;;;;;;;;12.60;99.90;;;;;;5053013;28;20027;-68
2022/10/14 09:06:24;;;;;;;;;;;12.60;99.90;;;;;;5054730;22;19975;-67
2022/10/14 09:08:51;;;;;;;;;;;12.60;99.90;;;;;;5024445;28;19929;-67
2022/10/14 09:11:21;;;;;;;;;;;12.60;99.90;;;;;;5005661;28;19932;-67
2022/10/14 09:13:49;;;;;;;;;;;12.60;99.90;;;;;;4999439;28;19968;-67
2022/10/14 09:16:18;;;;;;;;;;;12.70;99.90;;;;;;5005714;28;20290;-68
2022/10/14 09:18:47;;;;;;;;;;;12.70;99.90;;;;;;5025287;28;19927;-68
2022/10/14 09:21:28;;;;;;;;;;;12.80;99.90;;;;;;5007722;28;19947;-68
2022/10/14 09:23:56;;;;;;;;;;;12.80;99.90;;;;;;5004442;28;20629;-68
2022/10/14 09:26:21;;;;;;;;;;;12.90;99.90;;;;;;5004423;28;19931;-68
2022/10/14 09:28:49;;;;;;;;;;;12.90;99.90;;;;;;5005383;28;19933;-68
2022/10/14 09:31:14;;;;;;;;;;;12.90;99.90;;;;;;5024506;28;20576;-67
2022/10/14 09:33:40;;;;;;;;;;;12.90;99.90;;;;;;5008412;28;19936;-68
2022/10/14 09:36:17;;;;;;;;;;;12.90;99.90;;;;;;5012226;28;19932;-69
2022/10/14 09:38:50;;;;;;;;;;;13.00;99.90;;;;;;5009870;28;20304;-67
2022/10/14 09:41:16;;;;;;;;;;;13.00;99.90;;;;;;5035263;28;19921;-68
2022/10/14 09:44:11;;;;;;;;;;;13.00;99.90;;;;;;5014620;28;19921;-67
2022/10/14 09:46:37;;;;;;;;;;;13.00;99.90;;;;;;5008466;28;19931;-68
2022/10/14 09:49:02;;;;;;;;;;;13.10;99.90;;;;;;5004722;28;20074;-68
2022/10/14 09:51:29;;;;;;;;;;;13.10;99.90;;;;;;5012583;28;19927;-67
2022/10/14 09:53:56;;;;;;;;;;;13.10;99.90;;;;;;5014047;28;19933;-68
2022/10/14 09:56:29;;;;;;;;;;;13.10;99.90;;;;;;5012823;28;19925;-68
2022/10/14 09:58:56;;;;;;;;;;;13.10;99.90;;;;;;5008869;28;20369;-68
2022/10/14 10:01:23;;;;;;;;;;;13.10;99.90;;;;;;5026265;28;19921;-67
2022/10/14 10:03:49;;;;;;;;;;;13.20;99.90;;;;;;5016666;28;19921;-67
2022/10/14 10:06:17;;;;;;;;;;;13.20;99.90;;;;;;5016125;28;19926;-68
2022/10/14 10:08:52;;;;;;;;;;;13.20;99.90;;;;;;5013056;28;19932;-68
2022/10/14 10:11:37;;;;;;;;;;;13.20;99.90;;;;;;4988214;28;20013;-68
2022/10/14 10:14:14;;;;;;;;;;;13.20;99.90;;;;;;5011939;28;19924;-67
2022/10/14 10:16:40;;;;;;;;;;;13.20;99.90;;;;;;5033048;28;20340;-67
2022/10/14 10:19:38;;;;;;;;;;;13.20;99.90;;;;;;5013970;28;19996;-67
2022/10/14 10:22:23;;;;;;;;;;;13.20;99.90;;;;;;4980819;28;19932;-68
2022/10/14 10:24:50;;;;;;;;;;;13.20;99.90;;;;;;5016763;28;19921;-68
2022/10/14 10:27:18;;;;;;;;;;;13.20;99.90;;;;;;5026603;28;19926;-68
2022/10/14 10:29:44;;;;;;;;;;;13.20;99.90;;;;;;5028326;28;19932;-68
2022/10/14 10:32:13;;;;;;;;;;;13.30;99.90;;;;;;5027850;28;19922;-69
2022/10/14 10:34:58;;;;;;;;;;;13.30;99.90;;;;;;5034059;28;20011;-68
2022/10/14 10:37:24;;;;;;;;;;;13.30;99.90;;;;;;5007830;28;19921;-69
2022/10/14 10:40:08;;;;;;;;;;;13.20;99.90;;;;;;5013248;28;19976;-69
2022/10/14 10:42:52;;;;;;;;;;;13.20;99.90;;;;;;5014259;28;20291;-68
2022/10/14 10:45:18;;;;;;;;;;;13.20;99.90;;;;;;4996896;28;19928;-68
2022/10/14 10:47:54;;;;;;;;;;;13.20;99.90;;;;;;5009355;28;19999;-68
2022/10/14 10:50:19;;;;;;;;;;;13.10;99.90;;;;;;5027275;28;19968;-68
2022/10/14 10:52:51;;;;;;;;;;;13.20;99.90;;;;;;4995786;28;19925;-67
2022/10/14 10:55:16;;;;;;;;;;;13.20;99.90;;;;;;5015051;28;19928;-67
2022/10/14 10:57:47;;;;;;;;;;;13.20;99.90;;;;;;5020893;28;19921;-68
2022/10/14 11:00:15;;;;;;;;;;;13.20;99.90;;;;;;5011048;28;19932;-68
2022/10/14 11:03:04;;;;;;;;;;;13.20;99.90;;;;;;5024492;28;20314;-68
2022/10/14 11:05:42;;;;;;;;;;;13.20;99.90;;;;;;5000628;28;19921;-69
2022/10/14 11:13:54;;;;;;;;;;;13.20;99.90;;;;;;5014700;28;19921;-69
2022/10/14 11:16:30;;;;;;;;;;;13.20;99.90;;;;;;5008354;28;19948;-68
2022/10/14 11:19:12;;;;;;;;;;;13.20;99.90;;;;;;5008836;28;19925;-68
2022/10/14 11:21:41;;;;;;;;;;;13.10;99.90;;;;;;5009441;28;20004;-68
2022/10/14 11:24:07;;;;;;;;;;;13.10;99.90;;;;;;5007417;28;20287;-68
2022/10/14 11:26:50;;;;;;;;;;;13.20;99.90;;;;;;5023607;28;19971;-68
2022/10/14 11:29:36;;;;;;;;;;;13.20;99.90;;;;;;4993500;28;19929;-68
2022/10/14 11:32:13;;;;;;;;;;;13.20;99.90;;;;;;4987335;28;20371;-68
2022/10/14 11:34:42;;;;;;;;;;;13.20;99.90;;;;;;5027878;28;19921;-68
2022/10/14 11:37:27;;;;;;;;;;;13.30;99.90;;;;;;5005619;28;19925;-68
2022/10/14 11:40:12;;;;;;;;;;;13.30;99.90;;;;;;5027217;28;19925;-68
2022/10/14 11:43:12;;;;;;;;;;;13.30;99.90;;;;;;5022420;28;19921;-68
2022/10/14 11:45:53;;;;;;;;;;;13.30;99.90;;;;;;4979920;28;19982;-68
2022/10/14 11:48:37;;;;;;;;;;;13.40;99.90;;;;;;5013767;28;19951;-68
2022/10/14 11:51:18;;;;;;;;;;;13.40;99.90;;;;;;5028590;28;19921;-68
2022/10/14 11:53:48;;;;;;;;;;;13.50;99.90;;;;;;5011823;28;19925;-68
2022/10/14 11:56:34;;;;;;;;;;;13.60;99.90;;;;;;5022760;28;19921;-68
2022/10/14 11:59:02;;;;;;;;;;;13.60;99.90;;;;;;5025189;28;19921;-69
2022/10/14 12:01:29;;;;;;;;;;;13.60;99.90;;;;;;5012854;28;19929;-68
2022/10/14 12:03:59;;;;;;;;;;;13.60;99.90;;;;;;5012889;28;20012;-68
2022/10/14 12:06:30;;;;;;;;;;;13.50;99.90;;;;;;5011940;28;19932;-68
2022/10/14 12:08:59;;;;;;;;;;;13.50;99.90;;;;;;5014416;28;19929;-67
2022/10/14 12:11:26;;;;;;;;;;;13.50;99.90;;;;;;5005496;28;19961;-68
2022/10/14 12:13:56;;;;;;;;;;;13.50;99.90;;;;;;5035221;28;19920;-68
2022/10/14 12:16:22;;;;;;;;;;;13.50;99.90;;;;;;5015930;28;19945;-67
2022/10/14 12:18:51;;;;;;;;;;;13.60;99.90;;;;;;5011422;28;19928;-67
2022/10/14 12:21:36;;;;;;;;;;;13.60;99.90;;;;;;5003153;28;20007;-67
2022/10/14 12:24:13;;;;;;;;;;;13.60;99.90;;;;;;5001063;28;19965;-67
2022/10/14 12:26:52;;;;;;;;;;;13.60;99.90;;;;;;5024547;28;20338;-67
2022/10/14 12:29:20;;;;;;;;;;;13.60;99.90;;;;;;5024701;28;20556;-68
2022/10/14 12:32:09;;;;;;;;;;;13.60;99.90;;;;;;5005163;28;19921;-68
2022/10/14 12:34:39;;;;;;;;;;;13.70;99.90;;;;;;4991664;28;20367;-67
2022/10/14 12:37:22;;;;;;;;;;;13.70;99.90;;;;;;4999259;28;20582;-67
2022/10/14 12:39:50;;;;;;;;;;;13.80;99.90;;;;;;5003972;28;19929;-68
2022/10/14 12:42:15;;;;;;;;;;;13.80;99.90;;;;;;4990676;28;20362;-68
2022/10/14 12:44:50;;;;;;;;;;;13.90;99.90;;;;;;5012526;28;19940;-67
2022/10/14 12:47:27;;;;;;;;;;;13.90;99.90;;;;;;5002436;28;19925;-68
2022/10/14 12:49:55;;;;;;;;;;;13.90;99.90;;;;;;5004182;28;19948;-67
2022/10/14 12:52:37;;;;;;;;;;;14.00;99.90;;;;;;5006192;28;19921;-67
2022/10/14 12:55:15;;;;;;;;;;;14.00;99.90;;;;;;5020826;28;19944;-67
2022/10/14 12:57:41;;;;;;;;;;;14.00;99.90;;;;;;5001817;28;19944;-67
2022/10/14 13:00:12;;;;;;;;;;;14.10;99.90;;;;;;4993148;28;20293;-68
2022/10/14 13:02:43;;;;;;;;;;;14.10;99.90;;;;;;5001646;28;19925;-68
2022/10/14 13:05:30;;;;;;;;;;;14.10;99.90;;;;;;5002672;28;19929;-68
2022/10/14 13:08:22;;;;;;;;;;;14.10;99.90;;;;;;5008110;28;19935;-68
2022/10/14 13:10:54;;;;;;;;;;;14.10;99.90;;;;;;5008441;28;19929;-67
2022/10/14 13:13:43;;;;;;;;;;;14.10;99.90;;;;;;5003935;28;19925;-67
2022/10/14 13:16:24;;;;;;;;;;;14.10;99.90;;;;;;5006722;28;20321;-67
2022/10/14 13:18:59;;;;;;;;;;;14.10;99.90;;;;;;5013267;28;19925;-68
2022/10/14 13:21:34;;;;;;;;;;;14.10;99.90;;;;;;5013655;28;19925;-67
2022/10/14 13:23:59;;;;;;;;;;;14.10;99.90;;;;;;5012850;28;19925;-67
2022/10/14 13:26:28;;;;;;;;;;;14.10;99.90;;;;;;5012187;28;19924;-68
2022/10/14 13:28:53;;;;;;;;;;;14.10;99.90;;;;;;5000098;28;19929;-67
2022/10/14 13:31:30;;;;;;;;;;;14.10;99.90;;;;;;5005244;28;20466;-71
2022/10/14 13:34:05;;;;;;;;;;;14.20;99.90;;;;;;4997033;28;19921;-70
2022/10/14 13:36:35;;;;;;;;;;;14.20;99.90;;;;;;5015230;28;19975;-70
2022/10/14 13:39:01;;;;;;;;;;;14.20;99.90;;;;;;5015104;28;19921;-70
2022/10/14 13:41:27;;;;;;;;;;;14.20;99.90;;;;;;5009996;28;20440;-70
2022/10/14 13:43:54;;;;;;;;;;;14.20;99.90;;;;;;5014816;28;20385;-70
2022/10/14 13:46:25;;;;;;;;;;;14.20;99.90;;;;;;5015082;28;20000;-70
2022/10/14 13:48:53;;;;;;;;;;;14.30;99.90;;;;;;5014434;28;19925;-70
2022/10/14 13:51:28;;;;;;;;;;;14.30;99.90;;;;;;4998871;28;20008;-70
2022/10/14 13:53:55;;;;;;;;;;;14.20;99.90;;;;;;5014938;28;19979;-70
2022/10/14 13:56:22;;;;;;;;;;;14.30;99.90;;;;;;5005051;28;19987;-70
2022/10/14 13:58:47;;;;;;;;;;;14.30;99.90;;;;;;5012105;28;19932;-70
2022/10/14 14:01:13;;;;;;;;;;;14.30;99.90;;;;;;5014706;28;19921;-70
2022/10/14 14:03:42;;;;;;;;;;;14.30;99.90;;;;;;5013479;28;19921;-70
2022/10/14 14:06:12;;;;;;;;;;;14.30;99.90;;;;;;5013801;28;20378;-71
2022/10/14 14:08:48;;;;;;;;;;;14.40;99.90;;;;;;5013947;28;19929;-71
2022/10/14 14:11:18;;;;;;;;;;;14.40;99.90;;;;;;5014529;28;20367;-70
2022/10/14 14:13:45;;;;;;;;;;;14.50;99.90;;;;;;4998101;28;20008;-69
2022/10/14 14:16:19;;;;;;;;;;;14.50;99.90;;;;;;5012060;28;19929;-70
2022/10/14 14:18:48;;;;;;;;;;;14.60;99.90;;;;;;5002591;28;19925;-70
2022/10/14 14:21:14;;;;;;;;;;;14.60;99.90;;;;;;5018073;28;20256;-70
2022/10/14 14:23:49;;;;;;;;;;;14.70;99.90;;;;;;5018219;28;19971;-69
2022/10/14 14:26:15;;;;;;;;;;;14.70;99.90;;;;;;5017001;28;19925;-70
2022/10/14 14:28:43;;;;;;;;;;;14.70;99.90;;;;;;5017816;28;19975;-70
2022/10/14 14:31:13;;;;;;;;;;;14.80;99.90;;;;;;4994460;28;20363;-70